createdAt,value
2019-02-04T00:00:46.928Z,1.68
2019-02-04T00:05:51.379Z,1.73
2019-02-04T00:10:55.755Z,1.53
2019-02-04T00:16:00.147Z,1.50
2019-02-04T00:21:05.642Z,1.64
2019-02-04T00:26:09.977Z,1.64
2019-02-04T00:31:14.363Z,1.66
2019-02-04T00:36:18.936Z,1.64
2019-02-04T00:41:23.335Z,1.42
2019-02-04T00:47:19.950Z,1.52
2019-02-04T00:52:24.363Z,1.46
2019-02-04T00:57:28.694Z,1.49
2019-02-04T01:02:33.357Z,1.57
2019-02-04T01:07:37.741Z,1.38
2019-02-04T01:12:42.086Z,1.37
2019-02-04T01:17:46.486Z,1.50
2019-02-04T01:22:51.013Z,1.18
2019-02-04T01:27:55.447Z,1.17
2019-02-04T01:32:59.854Z,1.09
2019-02-04T01:38:04.531Z,1.09
2019-02-04T01:43:08.882Z,1.18
2019-02-04T01:48:13.342Z,1.04
2019-02-04T01:53:17.734Z,1.08
2019-02-04T01:58:22.103Z,0.55
2019-02-04T02:03:26.460Z,0.84
2019-02-04T02:08:30.820Z,0.81
2019-02-04T02:13:35.336Z,0.73
2019-02-04T02:18:39.707Z,0.49
2019-02-04T02:23:44.115Z,0.56
2019-02-04T02:28:48.476Z,0.73
2019-02-04T02:33:52.824Z,0.67
2019-02-04T02:38:57.222Z,0.78
2019-02-04T02:44:01.559Z,0.96
2019-02-04T02:49:06.111Z,0.88
2019-02-04T02:54:10.468Z,0.69
2019-02-04T02:59:14.891Z,0.78
2019-02-04T03:04:19.287Z,1.04
2019-02-04T03:09:23.593Z,0.84
2019-02-04T03:14:27.954Z,0.81
2019-02-04T03:19:32.498Z,0.92
2019-02-04T03:24:37.157Z,0.88
2019-02-04T03:29:41.544Z,1.01
2019-02-04T03:34:45.923Z,0.99
2019-02-04T03:39:50.272Z,0.84
2019-02-04T03:44:55.263Z,1.07
2019-02-04T03:49:59.612Z,0.95
2019-02-04T03:55:04.675Z,0.99
2019-02-04T04:00:22.939Z,1.04
2019-02-04T04:05:27.310Z,0.93
2019-02-04T04:10:31.656Z,1.01
2019-02-04T04:15:36.246Z,1.01
2019-02-04T04:20:40.608Z,1.01
2019-02-04T04:25:45.006Z,1.10
2019-02-04T04:30:49.379Z,1.10
2019-02-04T04:35:53.952Z,1.28
2019-02-04T04:40:58.275Z,1.36
2019-02-04T04:46:02.621Z,1.35
2019-02-04T04:51:07.062Z,1.40
2019-02-04T04:56:11.609Z,1.45
2019-02-04T05:01:16.140Z,1.39
2019-02-04T05:06:20.519Z,1.48
2019-02-04T05:11:24.876Z,1.44
2019-02-04T05:16:29.250Z,1.55
2019-02-04T05:21:33.615Z,1.56
2019-02-04T05:26:37.954Z,1.63
2019-02-04T05:31:42.303Z,1.84
2019-02-04T05:36:46.660Z,1.74
2019-02-04T05:41:51.105Z,1.50
2019-02-04T05:46:55.482Z,1.47
2019-02-04T05:51:59.978Z,1.31
2019-02-04T05:57:04.435Z,1.37
2019-02-04T06:02:12.485Z,1.61
2019-02-04T06:07:18.314Z,1.68
2019-02-04T06:12:22.838Z,1.56
2019-02-04T06:17:27.607Z,1.49
2019-02-04T06:22:32.036Z,1.70
2019-02-04T06:27:36.497Z,1.26
2019-02-04T06:32:40.898Z,1.42
2019-02-04T06:37:46.801Z,1.41
2019-02-04T06:42:51.527Z,1.38
2019-02-04T06:47:55.880Z,1.37
2019-02-04T06:53:00.399Z,1.37
2019-02-04T06:58:04.756Z,1.55
2019-02-04T07:03:09.131Z,1.57
2019-02-04T07:08:13.472Z,1.30
2019-02-04T07:13:17.868Z,1.49
2019-02-04T07:18:22.242Z,1.47
2019-02-04T07:23:26.632Z,1.64
2019-02-04T07:28:31.008Z,1.87
2019-02-04T07:33:36.346Z,1.76
2019-02-04T07:38:40.723Z,1.83
2019-02-04T07:43:45.078Z,2.00
2019-02-04T07:48:49.442Z,1.83
2019-02-04T07:53:54.000Z,2.03
2019-02-04T07:58:58.371Z,2.13
2019-02-04T08:04:02.845Z,2.56
2019-02-04T08:09:08.260Z,2.31
2019-02-04T08:14:12.605Z,2.05
2019-02-04T08:19:16.948Z,2.04
2019-02-04T08:24:21.292Z,2.10
2019-02-04T08:29:25.802Z,2.03
2019-02-04T08:34:30.140Z,2.42
2019-02-04T08:39:34.545Z,2.15
2019-02-04T08:44:38.888Z,2.20
2019-02-04T08:49:43.423Z,1.89
2019-02-04T08:54:47.787Z,2.11
2019-02-04T08:59:52.131Z,2.08
2019-02-04T09:04:56.471Z,2.10
2019-02-04T09:10:00.957Z,2.16
2019-02-04T09:15:16.195Z,2.25
2019-02-04T09:20:20.051Z,2.47
2019-02-04T09:25:27.933Z,2.24
2019-02-04T09:30:32.355Z,2.47
2019-02-04T09:35:36.754Z,2.33
2019-02-04T09:40:43.176Z,2.33
2019-02-04T09:45:47.533Z,2.36
2019-02-04T09:50:52.919Z,2.54
2019-02-04T09:55:57.295Z,2.69
2019-02-04T10:01:04.251Z,2.93
2019-02-04T10:06:07.735Z,3.32
2019-02-04T10:11:12.238Z,3.10
2019-02-04T10:16:16.637Z,3.16
2019-02-04T10:21:21.096Z,3.04
2019-02-04T10:26:25.658Z,2.91
2019-02-04T10:31:30.091Z,2.97
2019-02-04T10:36:34.481Z,2.98
2019-02-04T10:41:38.838Z,2.86
2019-02-04T10:46:43.259Z,3.10
2019-02-04T10:51:47.692Z,3.19
2019-02-04T10:56:52.037Z,3.31
2019-02-04T11:01:56.480Z,3.19
2019-02-04T11:07:00.862Z,3.01
2019-02-04T11:12:05.496Z,3.07
2019-02-04T11:17:10.145Z,3.16
2019-02-04T11:22:14.532Z,3.27
2019-02-04T11:27:18.886Z,3.51
2019-02-04T11:32:23.376Z,3.65
2019-02-04T11:37:27.722Z,3.75
2019-02-04T11:42:32.284Z,3.99
2019-02-04T11:47:36.665Z,3.94
2019-02-04T11:52:41.407Z,3.89
2019-02-04T11:57:45.853Z,3.93
2019-02-04T12:02:50.664Z,3.89
2019-02-04T12:07:55.037Z,3.87
2019-02-04T12:12:59.529Z,4.25
2019-02-04T12:18:05.233Z,4.18
2019-02-04T12:23:09.785Z,3.94
2019-02-04T12:28:14.500Z,3.95
2019-02-04T12:33:18.873Z,4.03
2019-02-04T12:38:23.478Z,4.08
2019-02-04T12:43:27.829Z,3.79
2019-02-04T12:48:32.226Z,3.64
2019-02-04T12:53:36.562Z,3.83
2019-02-04T12:58:40.955Z,3.92
2019-02-04T13:03:45.704Z,3.88
2019-02-04T13:08:50.058Z,3.97
2019-02-04T13:13:54.402Z,3.95
2019-02-04T13:18:58.872Z,3.99
2019-02-04T13:24:03.242Z,4.06
2019-02-04T13:29:07.606Z,4.05
2019-02-04T13:34:12.073Z,4.03
2019-02-04T13:39:16.500Z,3.98
2019-02-04T13:44:20.870Z,4.22
2019-02-04T13:49:25.287Z,4.26
2019-02-04T13:54:29.749Z,4.09
2019-02-04T13:59:34.158Z,4.02
2019-02-04T14:04:40.126Z,4.07
2019-02-04T14:09:44.461Z,3.90
2019-02-04T14:14:49.296Z,4.02
2019-02-04T14:19:53.668Z,3.88
2019-02-04T14:24:58.029Z,3.89
2019-02-04T14:30:02.409Z,3.88
2019-02-04T14:35:08.616Z,3.67
2019-02-04T14:40:18.492Z,3.93
2019-02-04T14:45:31.096Z,3.93
2019-02-04T14:50:58.144Z,3.85
2019-02-04T14:56:18.049Z,3.82
2019-02-04T15:02:00.360Z,3.83
2019-02-04T15:07:30.779Z,3.71
2019-02-04T15:13:01.154Z,3.84
2019-02-04T15:18:20.694Z,3.71
2019-02-04T15:23:54.030Z,3.51
2019-02-04T15:29:01.564Z,3.40
2019-02-04T15:34:33.542Z,3.08
2019-02-04T15:39:43.998Z,3.08
2019-02-04T15:45:06.185Z,2.89
2019-02-04T15:50:29.570Z,2.80
2019-02-04T15:55:33.914Z,2.59
2019-02-04T16:00:38.277Z,2.47
2019-02-04T16:05:42.851Z,2.49
2019-02-04T16:10:47.240Z,2.33
2019-02-04T16:15:51.595Z,2.16
2019-02-04T16:20:55.947Z,2.21
2019-02-04T16:26:00.308Z,2.05
2019-02-04T16:31:04.703Z,1.83
2019-02-04T16:36:09.040Z,1.78
2019-02-04T16:41:13.786Z,1.76
2019-02-04T16:46:18.325Z,1.81
2019-02-04T16:51:22.701Z,1.94
2019-02-04T16:56:27.061Z,2.02
2019-02-04T17:01:31.446Z,1.54
2019-02-04T17:06:35.812Z,1.30
2019-02-04T17:11:40.173Z,1.37
2019-02-04T17:16:44.617Z,1.27
2019-02-04T17:21:49.070Z,1.21
2019-02-04T17:26:53.504Z,1.22
2019-02-04T17:32:00.405Z,1.10
2019-02-04T17:37:04.366Z,0.92
2019-02-04T17:42:09.054Z,0.94
2019-02-04T17:47:13.598Z,1.01
2019-02-04T17:52:17.998Z,0.89
2019-02-04T17:57:22.396Z,0.81
2019-02-04T18:02:26.782Z,0.62
2019-02-04T18:07:31.228Z,0.58
2019-02-04T18:12:35.619Z,0.62
2019-02-04T18:17:40.450Z,0.49
2019-02-04T18:22:45.001Z,0.62
2019-02-04T18:27:49.451Z,0.17
2019-02-04T18:32:54.077Z,0.35
2019-02-04T18:37:58.938Z,0.26
2019-02-04T18:43:03.322Z,-0.05
2019-02-04T18:48:07.764Z,-0.14
2019-02-04T18:53:12.386Z,-0.04
2019-02-04T18:58:18.254Z,-0.12
2019-02-04T19:03:24.066Z,-0.06
2019-02-04T19:08:29.765Z,-0.11
2019-02-04T19:13:36.578Z,-0.06
2019-02-04T19:18:44.831Z,-0.03
2019-02-04T19:23:50.614Z,-0.05
2019-02-04T19:29:06.730Z,-0.08
2019-02-04T19:34:12.657Z,-0.11
2019-02-04T19:39:18.142Z,-0.24
2019-02-04T19:44:24.416Z,-0.15
2019-02-04T19:49:29.230Z,-0.33
2019-02-04T19:54:33.899Z,-0.45
2019-02-04T19:59:39.135Z,-0.48
2019-02-04T20:04:44.022Z,-0.23
2019-02-04T20:09:51.469Z,-0.41
2019-02-04T20:14:56.298Z,-0.36
2019-02-04T20:20:02.959Z,-0.39
2019-02-04T20:25:25.763Z,-0.55
2019-02-04T20:30:45.633Z,-0.49
2019-02-04T20:35:46.145Z,-0.52
2019-02-04T20:40:50.790Z,-0.57
2019-02-04T20:45:55.160Z,-0.78
2019-02-04T20:51:00.325Z,-0.83
2019-02-04T20:56:05.262Z,-0.58
2019-02-04T21:01:09.684Z,-0.56
2019-02-04T21:06:14.193Z,-0.81
2019-02-04T21:11:18.557Z,-0.86
2019-02-04T21:16:22.962Z,-0.71
2019-02-04T21:21:27.526Z,-0.84
2019-02-04T21:26:31.889Z,-0.47
2019-02-04T21:31:36.606Z,-0.21
2019-02-04T21:36:41.200Z,-0.48
2019-02-04T21:41:45.655Z,-0.29
2019-02-04T21:46:50.027Z,-0.56
2019-02-04T21:51:54.466Z,-0.80
2019-02-04T21:56:58.838Z,-0.87
2019-02-04T22:02:03.228Z,-0.76
2019-02-04T22:07:09.829Z,-0.80
2019-02-04T22:12:14.498Z,-1.06
2019-02-04T22:17:18.864Z,-1.12
2019-02-04T22:22:25.213Z,-0.98
2019-02-04T22:27:29.593Z,-0.94
2019-02-04T22:32:33.946Z,-0.99
2019-02-04T22:37:38.374Z,-0.86
2019-02-04T22:42:42.777Z,-1.12
2019-02-04T22:47:47.150Z,-1.08
2019-02-04T22:52:52.087Z,-0.72
2019-02-04T22:57:56.654Z,-0.69
2019-02-04T23:03:01.188Z,-0.84
2019-02-04T23:08:06.276Z,-0.76
2019-02-04T23:13:11.814Z,-0.67
2019-02-04T23:18:16.273Z,-0.81
2019-02-04T23:23:20.640Z,-0.66
2019-02-04T23:28:25.022Z,-1.07
2019-02-04T23:33:34.074Z,-1.33
2019-02-04T23:38:35.491Z,-1.33
2019-02-04T23:43:40.244Z,-1.28
2019-02-04T23:48:44.627Z,-1.15
2019-02-04T23:53:50.085Z,-1.10
2019-02-04T23:58:54.430Z,-0.98
